createdAt,value
2023-04-02T00:01:18.466Z,78.16
2023-04-02T00:03:45.428Z,78.37
2023-04-02T00:06:32.951Z,77.26
2023-04-02T00:09:15.273Z,77.26
2023-04-02T00:11:48.741Z,77.71
2023-04-02T00:14:36.862Z,78.53
2023-04-02T00:17:06.188Z,78.23
2023-04-02T00:19:41.942Z,78.37
2023-04-02T00:22:16.098Z,79.10
2023-04-02T00:24:43.292Z,78.96
2023-04-02T00:27:12.973Z,78.92
2023-04-02T00:29:48.058Z,78.08
2023-04-02T00:32:23.122Z,78.64
2023-04-02T00:34:50.822Z,79.02
2023-04-02T00:37:28.318Z,78.14
2023-04-02T00:40:07.356Z,77.03
2023-04-02T00:42:36.215Z,78.52
2023-04-02T00:45:04.393Z,78.28
2023-04-02T00:47:37.751Z,78.87
2023-04-02T00:50:14.642Z,79.38
2023-04-02T00:52:44.794Z,80.86
2023-04-02T00:55:21.764Z,81.75
2023-04-02T00:57:50.644Z,81.24
2023-04-02T01:03:13.369Z,81.46
2023-04-02T01:05:42.812Z,81.97
2023-04-02T01:08:22.527Z,82.33
2023-04-02T01:11:07.693Z,82.41
2023-04-02T01:13:43.550Z,81.96
2023-04-02T01:16:47.623Z,80.54
2023-04-02T01:19:34.401Z,80.39
2023-04-02T01:22:42.799Z,79.28
2023-04-02T01:25:18.071Z,78.66
2023-04-02T01:27:57.985Z,79.17
2023-04-02T01:30:25.842Z,80.67
2023-04-02T01:32:54.759Z,79.90
2023-04-02T01:35:22.972Z,79.13
2023-04-02T01:38:03.497Z,79.40
2023-04-02T01:40:52.397Z,79.17
2023-04-02T01:43:49.379Z,79.13
2023-04-02T01:46:32.253Z,79.93
2023-04-02T01:49:10.779Z,79.82
2023-04-02T01:51:43.770Z,80.35
2023-04-02T01:54:13.311Z,79.64
2023-04-02T01:56:41.611Z,80.14
2023-04-02T01:59:09.217Z,80.27
2023-04-02T02:01:48.686Z,79.75
2023-04-02T02:04:17.478Z,80.34
2023-04-02T02:06:45.901Z,80.07
2023-04-02T02:09:23.423Z,79.88
2023-04-02T02:11:51.770Z,80.96
2023-04-02T02:14:27.800Z,81.13
2023-04-02T02:17:01.636Z,80.87
2023-04-02T02:19:57.599Z,80.12
2023-04-02T02:22:37.732Z,80.12
2023-04-02T02:25:11.451Z,80.03
2023-04-02T02:27:49.854Z,79.75
2023-04-02T02:30:19.607Z,79.92
2023-04-02T02:33:14.557Z,78.78
2023-04-02T02:35:56.763Z,78.90
2023-04-02T02:38:35.324Z,78.06
2023-04-02T02:41:08.034Z,77.82
2023-04-02T02:43:39.298Z,77.88
2023-04-02T02:46:08.686Z,77.01
2023-04-02T02:48:39.617Z,76.79
2023-04-02T02:51:11.733Z,76.92
2023-04-02T02:53:55.630Z,77.27
2023-04-02T02:56:24.175Z,76.68
2023-04-02T02:58:53.046Z,76.87
2023-04-02T03:01:20.276Z,77.40
2023-04-02T03:03:52.207Z,77.43
2023-04-02T03:06:21.036Z,77.43
2023-04-02T03:08:53.957Z,77.13
2023-04-02T03:11:36.116Z,77.38
2023-04-02T03:14:15.094Z,77.43
2023-04-02T03:16:48.569Z,77.38
2023-04-02T03:19:35.238Z,77.48
2023-04-02T03:22:30.074Z,77.87
2023-04-02T03:25:16.585Z,77.63
2023-04-02T03:27:48.032Z,77.93
2023-04-02T03:30:47.628Z,78.33
2023-04-02T03:33:22.237Z,77.66
2023-04-02T03:36:13.569Z,78.40
2023-04-02T03:39:10.336Z,78.39
2023-04-02T03:41:57.577Z,78.52
2023-04-02T03:44:28.066Z,79.02
2023-04-02T03:47:36.736Z,79.74
2023-04-02T03:50:26.368Z,79.37
2023-04-02T03:52:53.251Z,79.53
2023-04-02T03:55:23.357Z,79.37
2023-04-02T03:57:57.248Z,79.64
2023-04-02T04:00:36.121Z,79.53
2023-04-02T04:03:16.689Z,80.54
2023-04-02T04:05:55.946Z,80.27
2023-04-02T04:08:27.557Z,80.67
2023-04-02T04:10:58.842Z,79.57
2023-04-02T04:13:39.097Z,79.13
2023-04-02T04:16:14.729Z,79.35
2023-04-02T04:18:49.878Z,79.18
2023-04-02T04:21:31.248Z,79.01
2023-04-02T04:24:06.137Z,79.10
2023-04-02T04:26:55.206Z,79.42
2023-04-02T04:29:46.946Z,80.20
2023-04-02T04:32:27.454Z,80.57
2023-04-02T04:35:37.047Z,80.41
2023-04-02T04:38:14.580Z,80.88
2023-04-02T04:41:05.414Z,80.06
2023-04-02T04:43:41.280Z,79.00
2023-04-02T04:46:23.219Z,78.37
2023-04-02T04:49:21.168Z,76.88
2023-04-02T04:52:09.538Z,75.36
2023-04-02T04:54:39.601Z,74.51
2023-04-02T04:57:18.053Z,73.35
2023-04-02T04:59:52.671Z,71.86
2023-04-02T05:02:33.573Z,70.59
2023-04-02T05:05:02.534Z,69.67
2023-04-02T05:07:35.314Z,66.91
2023-04-02T05:10:16.500Z,65.37
2023-04-02T05:12:54.993Z,66.42
2023-04-02T05:15:42.342Z,65.65
2023-04-02T05:18:18.379Z,65.56
2023-04-02T05:20:59.275Z,64.61
2023-04-02T05:23:30.117Z,65.49
2023-04-02T05:26:06.731Z,64.10
2023-04-02T05:28:40.554Z,62.91
2023-04-02T05:31:49.411Z,61.64
2023-04-02T05:34:25.281Z,59.44
2023-04-02T05:36:52.144Z,57.58
2023-04-02T05:39:23.097Z,58.94
2023-04-02T05:42:01.280Z,55.04
2023-04-02T05:44:36.345Z,57.08
2023-04-02T05:47:04.610Z,55.92
2023-04-02T05:49:40.623Z,55.34
2023-04-02T05:52:15.353Z,55.02
2023-04-02T05:54:52.587Z,55.95
2023-04-02T05:57:35.833Z,54.26
2023-04-02T06:00:18.025Z,53.24
2023-04-02T06:02:53.836Z,53.37
2023-04-02T06:05:29.034Z,54.65
2023-04-02T06:08:08.685Z,54.98
2023-04-02T06:10:45.686Z,52.39
2023-04-02T06:13:18.346Z,54.00
2023-04-02T06:15:47.245Z,50.40
2023-04-02T06:18:24.152Z,48.54
2023-04-02T06:20:52.066Z,48.64
2023-04-02T06:23:24.877Z,48.66
2023-04-02T06:25:54.502Z,46.67
2023-04-02T06:28:27.224Z,45.37
2023-04-02T06:30:59.837Z,44.39
2023-04-02T06:33:26.927Z,44.14
2023-04-02T06:35:56.317Z,42.73
2023-04-02T06:38:29.020Z,41.32
2023-04-02T06:41:02.954Z,41.38
2023-04-02T06:43:39.611Z,43.12
2023-04-02T06:46:14.057Z,41.23
2023-04-02T06:48:42.518Z,41.41
2023-04-02T06:51:14.453Z,42.56
2023-04-02T06:53:47.780Z,41.92
2023-04-02T06:56:27.960Z,41.72
2023-04-02T06:58:55.079Z,42.63
2023-04-02T07:01:29.608Z,44.06
2023-04-02T07:03:57.984Z,43.82
2023-04-02T07:06:25.057Z,44.82
2023-04-02T07:08:52.036Z,44.24
2023-04-02T07:11:22.534Z,44.48
2023-04-02T07:13:51.414Z,43.34
2023-04-02T07:16:21.359Z,42.44
2023-04-02T07:18:49.205Z,43.09
2023-04-02T07:21:16.039Z,42.03
2023-04-02T07:23:42.831Z,42.66
2023-04-02T07:26:15.058Z,42.15
2023-04-02T07:28:42.205Z,41.23
2023-04-02T07:31:28.881Z,40.72
2023-04-02T07:33:59.989Z,41.37
2023-04-02T07:36:29.449Z,40.28
2023-04-02T07:38:56.697Z,41.10
2023-04-02T07:41:23.895Z,40.83
2023-04-02T07:43:50.872Z,38.97
2023-04-02T07:46:20.378Z,39.22
2023-04-02T07:48:47.779Z,41.81
2023-04-02T07:51:20.737Z,41.33
2023-04-02T07:53:50.602Z,41.84
2023-04-02T07:56:19.746Z,41.32
2023-04-02T07:58:47.050Z,41.59
2023-04-02T08:01:26.072Z,39.98
2023-04-02T08:03:54.968Z,41.44
2023-04-02T08:06:22.852Z,42.32
2023-04-02T08:08:50.461Z,42.27
2023-04-02T08:11:17.452Z,41.24
2023-04-02T08:13:44.404Z,41.27
2023-04-02T08:16:11.916Z,40.84
2023-04-02T08:18:39.051Z,42.42
2023-04-02T08:21:08.905Z,43.95
2023-04-02T08:23:36.329Z,43.90
2023-04-02T08:26:03.822Z,44.77
2023-04-02T08:28:30.669Z,44.44
2023-04-02T08:30:57.989Z,44.16
2023-04-02T08:33:25.000Z,44.43
2023-04-02T08:35:52.009Z,44.31
2023-04-02T08:38:21.998Z,46.22
2023-04-02T08:40:56.730Z,44.77
2023-04-02T08:44:00.741Z,45.52
2023-04-02T08:46:42.381Z,46.10
2023-04-02T08:49:16.395Z,44.78
2023-04-02T08:51:45.241Z,45.81
2023-04-02T08:54:18.685Z,46.62
2023-04-02T08:57:04.454Z,46.54
2023-04-02T08:59:52.416Z,46.59
2023-04-02T09:02:41.128Z,47.29
2023-04-02T09:05:17.947Z,47.99
2023-04-02T09:07:47.407Z,47.67
2023-04-02T09:10:16.859Z,50.57
2023-04-02T09:12:47.365Z,47.66
2023-04-02T09:15:14.104Z,46.79
2023-04-02T09:17:53.091Z,46.30
2023-04-02T09:20:26.611Z,42.11
2023-04-02T09:22:54.413Z,44.73
2023-04-02T09:25:27.784Z,42.25
2023-04-02T09:27:57.295Z,42.54
2023-04-02T09:30:30.039Z,40.90
2023-04-02T09:32:59.022Z,40.11
2023-04-02T09:35:28.817Z,41.01
2023-04-02T09:38:07.550Z,43.89
2023-04-02T09:40:56.488Z,39.46
2023-04-02T09:43:28.684Z,39.74
2023-04-02T09:46:02.163Z,39.75
2023-04-02T09:48:33.838Z,40.93
2023-04-02T09:51:25.191Z,40.46
2023-04-02T09:54:08.590Z,41.05
2023-04-02T09:56:37.372Z,39.37
2023-04-02T09:59:13.120Z,40.25
2023-04-02T10:01:41.768Z,41.81
2023-04-02T10:04:38.713Z,41.83
2023-04-02T10:07:07.190Z,43.06
2023-04-02T10:09:37.197Z,43.12
2023-04-02T10:12:12.918Z,42.00
2023-04-02T10:14:48.517Z,44.67
2023-04-02T10:17:23.970Z,42.85
2023-04-02T10:20:06.306Z,43.40
2023-04-02T10:22:33.320Z,42.97
2023-04-02T10:25:00.197Z,43.04
2023-04-02T10:27:31.204Z,41.45
2023-04-02T10:30:13.064Z,40.26
2023-04-02T10:33:03.741Z,40.93
2023-04-02T10:36:05.877Z,41.26
2023-04-02T10:38:42.699Z,39.17
2023-04-02T10:41:34.225Z,41.73
2023-04-02T10:44:19.484Z,42.34
2023-04-02T10:47:02.850Z,41.25
2023-04-02T10:49:48.276Z,41.42
2023-04-02T10:52:40.546Z,40.28
2023-04-02T10:55:26.830Z,41.18
2023-04-02T10:57:57.406Z,42.24
2023-04-02T11:00:37.267Z,40.35
2023-04-02T11:03:20.449Z,42.76
2023-04-02T11:05:48.850Z,41.81
2023-04-02T11:08:32.052Z,42.60
2023-04-02T11:11:10.124Z,43.48
2023-04-02T11:13:43.029Z,44.36
2023-04-02T11:16:15.687Z,45.22
2023-04-02T11:18:44.993Z,44.62
2023-04-02T11:21:57.291Z,43.82
2023-04-02T11:24:34.147Z,43.39
2023-04-02T11:27:25.609Z,46.70
2023-04-02T11:30:17.097Z,42.33
2023-04-02T11:32:49.916Z,45.07
2023-04-02T11:35:32.152Z,43.72
2023-04-02T11:38:11.022Z,44.12
2023-04-02T11:40:46.853Z,41.66
2023-04-02T11:43:36.616Z,41.12
2023-04-02T11:46:29.361Z,43.29
2023-04-02T11:49:34.613Z,44.47
2023-04-02T11:52:11.452Z,41.39
2023-04-02T11:54:39.374Z,41.65
2023-04-02T11:57:43.972Z,39.66
2023-04-02T12:01:15.928Z,40.76
2023-04-02T12:03:51.810Z,41.96
2023-04-02T12:06:39.929Z,40.96
2023-04-02T12:09:29.520Z,43.21
2023-04-02T12:11:59.868Z,43.94
2023-04-02T12:14:35.766Z,43.51
2023-04-02T12:17:15.540Z,39.83
2023-04-02T12:19:48.882Z,40.01
2023-04-02T12:22:28.879Z,39.67
2023-04-02T12:25:00.898Z,41.61
2023-04-02T12:27:30.070Z,43.09
2023-04-02T12:30:12.232Z,41.06
2023-04-02T12:32:39.422Z,43.47
2023-04-02T12:35:08.490Z,40.94
2023-04-02T12:37:35.742Z,41.34
2023-04-02T12:40:16.459Z,40.84
2023-04-02T12:42:47.590Z,42.78
2023-04-02T12:45:31.359Z,40.20
2023-04-02T12:48:02.187Z,40.94
2023-04-02T12:50:29.511Z,43.39
2023-04-02T12:52:59.097Z,40.40
2023-04-02T12:55:27.676Z,39.98
2023-04-02T12:57:59.964Z,38.20
2023-04-02T13:00:32.254Z,39.78
2023-04-02T13:03:03.142Z,41.43
2023-04-02T13:05:36.506Z,41.52
2023-04-02T13:08:04.641Z,40.46
2023-04-02T13:10:32.101Z,39.77
2023-04-02T13:13:01.135Z,41.34
2023-04-02T13:15:37.069Z,39.83
2023-04-02T13:18:13.320Z,39.24
2023-04-02T13:20:42.047Z,38.80
2023-04-02T13:23:27.745Z,39.37
2023-04-02T13:25:55.529Z,38.88
2023-04-02T13:28:23.246Z,39.00
2023-04-02T13:30:50.670Z,43.94
2023-04-02T13:33:18.041Z,45.22
2023-04-02T13:35:45.680Z,46.02
2023-04-02T13:38:13.062Z,45.15
2023-04-02T13:40:40.296Z,47.33
2023-04-02T13:43:16.207Z,47.84
2023-04-02T13:45:43.367Z,48.39
2023-04-02T13:48:14.957Z,48.06
2023-04-02T13:50:42.769Z,49.53
2023-04-02T13:53:21.333Z,48.79
2023-04-02T13:55:49.186Z,48.95
2023-04-02T13:58:16.289Z,49.29
2023-04-02T14:00:43.765Z,47.71
2023-04-02T14:03:16.740Z,47.96
2023-04-02T14:05:55.600Z,46.49
2023-04-02T14:08:30.562Z,45.90
2023-04-02T14:11:22.330Z,45.73
2023-04-02T14:14:33.675Z,46.71
2023-04-02T14:17:18.508Z,47.55
2023-04-02T14:20:04.287Z,48.69
2023-04-02T14:22:51.069Z,48.57
2023-04-02T14:25:40.082Z,48.83
2023-04-02T14:28:29.928Z,49.46
2023-04-02T14:31:15.678Z,49.70
2023-04-02T14:33:57.606Z,50.47
2023-04-02T14:36:29.149Z,49.69
2023-04-02T14:39:03.355Z,49.99
2023-04-02T14:41:38.077Z,49.09
2023-04-02T14:44:08.046Z,48.78
2023-04-02T14:46:38.125Z,48.43
2023-04-02T14:49:16.902Z,48.19
2023-04-02T14:51:51.776Z,46.93
2023-04-02T14:54:55.286Z,46.96
2023-04-02T14:57:55.701Z,46.31
2023-04-02T15:00:38.300Z,46.45
2023-04-02T15:03:08.655Z,46.79
2023-04-02T15:05:50.899Z,47.21
2023-04-02T15:08:48.320Z,47.10
2023-04-02T15:11:37.673Z,46.74
2023-04-02T15:14:21.664Z,46.91
2023-04-02T15:16:50.481Z,47.25
2023-04-02T15:19:25.566Z,47.06
2023-04-02T15:22:15.415Z,47.73
2023-04-02T15:25:17.990Z,47.11
2023-04-02T15:28:23.063Z,47.04
2023-04-02T15:30:54.670Z,47.38
2023-04-02T15:33:28.817Z,48.02
2023-04-02T15:36:07.961Z,48.80
2023-04-02T15:38:41.280Z,49.55
2023-04-02T15:41:23.604Z,49.73
2023-04-02T15:44:13.526Z,50.65
2023-04-02T15:46:56.329Z,50.27
2023-04-02T15:49:36.229Z,51.30
2023-04-02T15:52:34.783Z,51.75
2023-04-02T15:55:36.620Z,52.54
2023-04-02T15:58:16.130Z,52.93
2023-04-02T16:01:02.567Z,53.40
2023-04-02T16:04:00.655Z,56.29
2023-04-02T16:07:00.950Z,56.79
2023-04-02T16:09:37.783Z,56.22
2023-04-02T16:12:21.308Z,55.75
2023-04-02T16:14:49.621Z,56.29
2023-04-02T16:17:28.579Z,56.52
2023-04-02T16:20:18.876Z,56.81
2023-04-02T16:23:00.468Z,57.21
2023-04-02T16:25:34.531Z,56.19
2023-04-02T16:28:21.906Z,56.94
2023-04-02T16:31:16.292Z,57.20
2023-04-02T16:34:06.092Z,57.58
2023-04-02T16:36:58.273Z,59.24
2023-04-02T16:39:41.561Z,60.16
2023-04-02T16:42:36.848Z,61.30
2023-04-02T16:45:12.320Z,61.48
2023-04-02T16:47:42.163Z,61.33
2023-04-02T16:50:31.114Z,61.55
2023-04-02T16:53:14.316Z,61.86
2023-04-02T16:56:02.654Z,62.08
2023-04-02T16:58:41.500Z,67.75
2023-04-02T17:01:17.226Z,62.18
2023-04-02T17:04:02.516Z,61.91
2023-04-02T17:06:29.422Z,62.46
2023-04-02T17:09:20.287Z,62.18
2023-04-02T17:11:55.683Z,62.83
2023-04-02T17:19:00.856Z,62.83
2023-04-02T17:21:52.479Z,62.36
2023-04-02T17:25:03.651Z,62.53
2023-04-02T17:28:17.130Z,62.49
2023-04-02T17:30:54.790Z,62.76
2023-04-02T17:34:10.044Z,62.97
2023-04-02T17:36:47.951Z,63.57
2023-04-02T17:39:31.145Z,63.03
2023-04-02T17:42:35.292Z,63.71
2023-04-02T17:45:16.450Z,64.23
2023-04-02T17:48:33.146Z,64.62
2023-04-02T17:51:22.129Z,65.51
2023-04-02T17:54:04.724Z,65.30
2023-04-02T17:56:40.132Z,65.13
2023-04-02T17:59:49.738Z,65.97
2023-04-02T18:02:36.651Z,66.06
2023-04-02T18:05:25.198Z,66.22
2023-04-02T18:08:12.637Z,67.37
2023-04-02T18:10:51.424Z,67.64
2023-04-02T18:13:35.923Z,68.28
2023-04-02T18:16:14.712Z,69.74
2023-04-02T18:18:46.618Z,71.90
2023-04-02T18:21:17.087Z,73.61
2023-04-02T18:24:23.661Z,73.30
2023-04-02T18:27:49.270Z,74.78
2023-04-02T18:30:22.348Z,75.59
2023-04-02T18:33:37.567Z,75.15
2023-04-02T18:36:27.851Z,75.11
2023-04-02T18:39:03.051Z,75.16
2023-04-02T18:41:36.337Z,75.99
2023-04-02T18:44:19.534Z,75.28
2023-04-02T18:46:55.281Z,75.89
2023-04-02T18:49:43.882Z,76.41
2023-04-02T18:52:17.180Z,77.66
2023-04-02T18:54:49.924Z,78.56
2023-04-02T18:57:22.715Z,77.56
2023-04-02T18:59:55.338Z,79.00
2023-04-02T19:02:37.647Z,78.52
2023-04-02T19:05:21.860Z,75.48
2023-04-02T19:07:52.631Z,75.40
2023-04-02T19:10:31.644Z,75.92
2023-04-02T19:12:58.542Z,76.37
2023-04-02T19:16:03.607Z,76.34
2023-04-02T19:19:09.737Z,76.19
2023-04-02T19:21:53.319Z,77.32
2023-04-02T19:24:53.551Z,78.67
2023-04-02T19:27:39.538Z,80.08
2023-04-02T19:30:30.747Z,80.13
2023-04-02T19:33:21.558Z,80.22
2023-04-02T19:35:57.611Z,79.98
2023-04-02T19:38:29.901Z,81.05
2023-04-02T19:41:27.465Z,80.78
2023-04-02T19:43:56.112Z,81.67
2023-04-02T19:46:25.570Z,80.91
2023-04-02T19:49:04.240Z,80.48
2023-04-02T19:51:31.307Z,80.81
2023-04-02T19:53:58.232Z,80.23
2023-04-02T19:56:25.268Z,80.15
2023-04-02T19:58:52.299Z,81.16
2023-04-02T20:01:19.463Z,80.96
2023-04-02T20:03:46.852Z,80.65
2023-04-02T20:06:13.844Z,80.42
2023-04-02T20:08:41.052Z,80.03
2023-04-02T20:11:08.230Z,80.13
2023-04-02T20:13:35.925Z,81.10
2023-04-02T20:16:05.018Z,81.16
2023-04-02T20:18:32.766Z,81.01
2023-04-02T20:21:04.846Z,81.38
2023-04-02T20:23:34.340Z,80.81
2023-04-02T20:26:02.960Z,81.98
2023-04-02T20:28:32.182Z,81.61
2023-04-02T20:31:08.896Z,81.70
2023-04-02T20:33:36.851Z,81.40
2023-04-02T20:36:09.443Z,82.76
2023-04-02T20:38:37.041Z,82.42
2023-04-02T20:41:06.272Z,82.07
2023-04-02T20:43:34.065Z,82.11
2023-04-02T20:46:04.984Z,83.22
2023-04-02T20:48:32.888Z,83.22
2023-04-02T20:51:02.288Z,83.92
2023-04-02T20:53:31.441Z,83.75
2023-04-02T20:56:07.446Z,83.75
2023-04-02T20:58:36.130Z,83.77
2023-04-02T21:01:11.310Z,85.21
2023-04-02T21:03:40.084Z,84.49
2023-04-02T21:06:13.281Z,83.61
2023-04-02T21:08:40.363Z,83.22
2023-04-02T21:11:09.076Z,82.67
2023-04-02T21:13:37.371Z,81.92
2023-04-02T21:16:12.367Z,82.20
2023-04-02T21:18:39.364Z,82.04
2023-04-02T21:21:07.927Z,82.91
2023-04-02T21:23:35.121Z,83.45
2023-04-02T21:26:06.378Z,83.16
2023-04-02T21:28:34.915Z,83.92
2023-04-02T21:31:10.967Z,82.71
2023-04-02T21:33:46.918Z,83.34
2023-04-02T21:36:40.282Z,83.14
2023-04-02T21:39:10.813Z,82.57
2023-04-02T21:41:43.112Z,83.33
2023-04-02T21:44:14.842Z,83.21
2023-04-02T21:46:43.212Z,84.24
2023-04-02T21:49:16.669Z,84.94
2023-04-02T21:51:45.838Z,84.81
2023-04-02T21:54:13.931Z,86.02
2023-04-02T21:56:43.295Z,83.86
2023-04-02T21:59:12.233Z,84.40
2023-04-02T22:01:45.184Z,84.62
2023-04-02T22:04:18.342Z,84.41
2023-04-02T22:06:46.055Z,85.09
2023-04-02T22:09:16.087Z,85.30
2023-04-02T22:11:46.165Z,85.23
2023-04-02T22:14:13.740Z,85.61
2023-04-02T22:16:41.349Z,85.25
2023-04-02T22:19:11.909Z,84.97
2023-04-02T22:21:40.050Z,85.74
2023-04-02T22:24:09.697Z,86.38
2023-04-02T22:26:37.435Z,86.54
2023-04-02T22:29:05.611Z,86.74
2023-04-02T22:31:35.497Z,86.23
2023-04-02T22:34:03.567Z,86.33
2023-04-02T22:36:32.668Z,85.82
2023-04-02T22:39:01.133Z,85.18
2023-04-02T22:41:32.253Z,84.48
2023-04-02T22:44:00.606Z,84.43
2023-04-02T22:46:29.187Z,84.51
2023-04-02T22:48:56.451Z,84.66
2023-04-02T22:51:25.510Z,84.38
2023-04-02T22:53:55.139Z,83.88
2023-04-02T22:56:28.918Z,83.06
2023-04-02T22:58:55.926Z,83.78
2023-04-02T23:01:26.656Z,84.28
2023-04-02T23:03:55.676Z,84.88
2023-04-02T23:06:24.012Z,83.91
2023-04-02T23:08:51.710Z,84.73
2023-04-02T23:11:27.719Z,84.32
2023-04-02T23:13:56.876Z,85.18
2023-04-02T23:16:27.055Z,85.94
2023-04-02T23:18:55.122Z,85.20
2023-04-02T23:21:22.941Z,85.02
2023-04-02T23:23:51.103Z,84.66
2023-04-02T23:26:21.969Z,85.58
2023-04-02T23:28:50.491Z,84.14
2023-04-02T23:31:20.654Z,84.64
2023-04-02T23:33:47.709Z,84.25
2023-04-02T23:36:32.604Z,84.76
2023-04-02T23:39:09.610Z,84.06
2023-04-02T23:41:39.265Z,83.44
2023-04-02T23:44:07.096Z,83.97
2023-04-02T23:46:35.494Z,85.43
2023-04-02T23:49:02.886Z,85.06
2023-04-02T23:51:34.056Z,84.89
2023-04-02T23:54:02.214Z,85.99
2023-04-02T23:56:29.354Z,86.00
2023-04-02T23:58:56.825Z,85.62
